createdAt,value
2019-05-19T00:00:38.078Z,0.00
2019-05-19T00:01:38.072Z,0.00
2019-05-19T00:02:40.675Z,0.00
2019-05-19T00:03:38.064Z,0.00
2019-05-19T00:04:38.036Z,0.00
2019-05-19T00:05:38.030Z,0.00
2019-05-19T00:06:38.041Z,0.00
2019-05-19T00:07:38.022Z,0.00
2019-05-19T00:08:38.034Z,0.00
2019-05-19T00:09:37.990Z,0.00
2019-05-19T00:10:37.977Z,0.00
2019-05-19T00:11:37.968Z,0.00
2019-05-19T00:12:37.951Z,0.00
2019-05-19T00:13:37.983Z,0.00
2019-05-19T00:14:37.938Z,0.00
2019-05-19T00:15:37.926Z,0.00
2019-05-19T00:16:37.916Z,0.00
2019-05-19T00:17:37.906Z,0.00
2019-05-19T00:18:37.882Z,0.00
2019-05-19T00:19:37.896Z,0.00
2019-05-19T00:20:37.879Z,0.00
2019-05-19T00:21:37.856Z,0.00
2019-05-19T00:22:37.859Z,0.00
2019-05-19T00:23:37.829Z,0.00
2019-05-19T00:24:37.839Z,0.00
2019-05-19T00:25:37.810Z,0.00
2019-05-19T00:26:37.805Z,0.00
2019-05-19T00:27:37.787Z,0.00
2019-05-19T00:28:37.779Z,0.00
2019-05-19T00:29:37.807Z,0.00
2019-05-19T00:30:37.763Z,0.00
2019-05-19T00:31:37.749Z,0.00
2019-05-19T00:32:37.743Z,0.00
2019-05-19T00:33:37.740Z,0.00
2019-05-19T00:34:37.723Z,0.00
2019-05-19T00:35:37.711Z,0.00
2019-05-19T00:36:37.693Z,0.00
2019-05-19T00:37:37.679Z,0.00
2019-05-19T00:38:37.673Z,0.00
2019-05-19T00:39:37.683Z,0.00
2019-05-19T00:40:37.642Z,0.00
2019-05-19T00:41:37.643Z,0.00
2019-05-19T00:42:37.625Z,0.00
2019-05-19T00:43:37.609Z,0.00
2019-05-19T00:44:37.629Z,0.00
2019-05-19T00:45:37.595Z,0.00
2019-05-19T00:46:37.587Z,0.00
2019-05-19T00:47:37.586Z,0.00
2019-05-19T00:48:37.599Z,0.00
2019-05-19T00:49:41.294Z,0.00
2019-05-19T00:50:37.541Z,0.00
2019-05-19T00:51:37.529Z,0.00
2019-05-19T00:52:37.517Z,0.00
2019-05-19T00:53:37.507Z,0.00
2019-05-19T00:54:37.545Z,0.00
2019-05-19T00:55:37.480Z,0.00
2019-05-19T00:56:37.474Z,0.00
2019-05-19T00:57:37.462Z,0.00
2019-05-19T00:58:37.458Z,0.00
2019-05-19T00:59:37.462Z,0.00
2019-05-19T01:00:37.435Z,0.00
2019-05-19T01:01:37.426Z,0.00
2019-05-19T01:02:37.435Z,0.00
2019-05-19T01:03:37.407Z,0.00
2019-05-19T01:04:37.411Z,0.00
2019-05-19T01:05:37.388Z,0.00
2019-05-19T01:06:37.369Z,0.00
2019-05-19T01:07:37.385Z,0.00
2019-05-19T01:08:37.340Z,0.00
2019-05-19T01:09:37.374Z,0.00
2019-05-19T01:10:37.320Z,0.00
2019-05-19T01:11:37.316Z,0.00
2019-05-19T01:12:37.318Z,0.00
2019-05-19T01:13:37.298Z,0.00
2019-05-19T01:14:37.304Z,0.00
2019-05-19T01:15:37.294Z,0.00
2019-05-19T01:16:37.262Z,0.00
2019-05-19T01:17:37.256Z,0.00
2019-05-19T01:18:37.244Z,0.00
2019-05-19T01:19:37.230Z,0.00
2019-05-19T01:20:37.232Z,0.00
2019-05-19T01:21:37.204Z,0.00
2019-05-19T01:22:37.194Z,0.00
2019-05-19T01:23:37.189Z,0.00
2019-05-19T01:24:37.166Z,0.00
2019-05-19T01:25:37.186Z,0.00
2019-05-19T01:26:37.161Z,0.00
2019-05-19T01:27:37.141Z,0.00
2019-05-19T01:28:37.138Z,0.00
2019-05-19T01:29:37.132Z,0.00
2019-05-19T01:30:37.148Z,0.00
2019-05-19T01:31:37.094Z,0.00
2019-05-19T01:32:37.091Z,0.00
2019-05-19T01:33:37.096Z,0.00
2019-05-19T01:34:37.057Z,0.00
2019-05-19T01:35:37.074Z,0.00
2019-05-19T01:36:37.083Z,0.00
2019-05-19T01:37:37.045Z,0.00
2019-05-19T01:38:37.017Z,0.00
2019-05-19T01:39:37.024Z,0.00
2019-05-19T01:40:37.011Z,0.00
2019-05-19T01:41:36.982Z,0.00
2019-05-19T01:42:36.977Z,0.00
2019-05-19T01:43:36.965Z,0.00
2019-05-19T01:44:36.955Z,0.00
2019-05-19T01:45:36.970Z,0.00
2019-05-19T01:46:36.940Z,0.00
2019-05-19T01:47:36.949Z,0.00
2019-05-19T01:48:36.909Z,0.00
2019-05-19T01:49:36.922Z,0.00
2019-05-19T01:50:36.927Z,0.00
2019-05-19T01:51:36.881Z,0.00
2019-05-19T01:52:36.875Z,0.00
2019-05-19T01:53:36.861Z,0.00
2019-05-19T01:54:36.845Z,0.00
2019-05-19T01:55:36.869Z,0.00
2019-05-19T01:56:36.822Z,0.00
2019-05-19T01:57:36.817Z,0.00
2019-05-19T01:58:36.809Z,0.00
2019-05-19T01:59:36.787Z,0.00
2019-05-19T02:00:36.817Z,0.00
2019-05-19T02:01:36.765Z,0.00
2019-05-19T02:02:36.758Z,0.00
2019-05-19T02:03:36.749Z,0.00
2019-05-19T02:04:36.733Z,0.00
2019-05-19T02:05:36.744Z,0.00
2019-05-19T02:06:36.734Z,0.00
2019-05-19T02:07:36.737Z,0.00
2019-05-19T02:08:36.701Z,0.00
2019-05-19T02:09:36.683Z,0.00
2019-05-19T02:10:36.690Z,0.00
2019-05-19T02:11:36.672Z,0.00
2019-05-19T02:12:36.657Z,0.00
2019-05-19T02:13:36.659Z,0.00
2019-05-19T02:14:36.628Z,0.00
2019-05-19T02:15:36.616Z,0.00
2019-05-19T02:16:36.618Z,0.00
2019-05-19T02:17:36.601Z,0.00
2019-05-19T02:18:36.584Z,0.00
2019-05-19T02:19:36.584Z,0.00
2019-05-19T02:20:36.569Z,0.00
2019-05-19T02:21:36.570Z,0.00
2019-05-19T02:22:36.565Z,0.00
2019-05-19T02:23:36.526Z,4.00
2019-05-19T02:24:36.527Z,4.00
2019-05-19T02:25:36.520Z,4.00
2019-05-19T02:26:36.531Z,4.00
2019-05-19T02:27:36.488Z,4.00
2019-05-19T02:28:36.480Z,4.00
2019-05-19T02:29:36.462Z,4.00
2019-05-19T02:30:36.448Z,8.00
2019-05-19T02:31:36.470Z,4.00
2019-05-19T02:32:36.456Z,8.00
2019-05-19T02:33:36.427Z,8.00
2019-05-19T02:34:36.405Z,8.00
2019-05-19T02:35:36.415Z,8.00
2019-05-19T02:36:36.414Z,12.00
2019-05-19T02:37:36.375Z,12.00
2019-05-19T02:38:36.381Z,16.00
2019-05-19T02:39:36.368Z,16.00
2019-05-19T02:40:36.355Z,20.00
2019-05-19T02:41:36.341Z,20.00
2019-05-19T02:42:36.325Z,24.00
2019-05-19T02:43:36.307Z,28.00
2019-05-19T02:44:36.306Z,32.00
2019-05-19T02:45:36.291Z,36.00
2019-05-19T02:46:36.294Z,40.00
2019-05-19T02:47:36.264Z,48.00
2019-05-19T02:48:36.253Z,56.00
2019-05-19T02:49:36.254Z,60.00
2019-05-19T02:50:50.780Z,68.00
2019-05-19T02:51:37.234Z,80.00
2019-05-19T02:52:36.205Z,88.00
2019-05-19T02:53:36.213Z,96.00
2019-05-19T02:54:36.229Z,108.00
2019-05-19T02:55:36.175Z,120.00
2019-05-19T02:56:36.198Z,136.00
2019-05-19T02:57:36.153Z,152.00
2019-05-19T02:58:36.159Z,168.00
2019-05-19T02:59:36.134Z,188.00
2019-05-19T03:00:36.123Z,208.00
2019-05-19T03:01:36.131Z,232.00
2019-05-19T03:02:36.110Z,252.00
2019-05-19T03:03:36.088Z,276.00
2019-05-19T03:04:36.078Z,304.00
2019-05-19T03:05:36.064Z,328.00
2019-05-19T03:06:36.100Z,356.00
2019-05-19T03:07:36.072Z,384.00
2019-05-19T03:08:36.037Z,412.00
2019-05-19T03:09:36.033Z,440.00
2019-05-19T03:10:36.015Z,472.00
2019-05-19T03:11:36.005Z,500.00
2019-05-19T03:12:36.016Z,532.00
2019-05-19T03:13:35.997Z,564.00
2019-05-19T03:14:35.977Z,600.00
2019-05-19T03:15:35.966Z,632.00
2019-05-19T03:16:35.970Z,668.00
2019-05-19T03:17:35.952Z,712.00
2019-05-19T03:18:35.925Z,760.00
2019-05-19T03:19:35.925Z,804.00
2019-05-19T03:20:35.904Z,856.00
2019-05-19T03:21:35.903Z,904.00
2019-05-19T03:22:36.017Z,960.00
2019-05-19T03:23:35.879Z,1020.00
2019-05-19T03:24:35.889Z,1084.00
2019-05-19T03:25:35.850Z,1148.00
2019-05-19T03:26:35.837Z,1220.00
2019-05-19T03:27:35.855Z,1292.00
2019-05-19T03:28:35.832Z,1364.00
2019-05-19T03:29:35.814Z,1436.00
2019-05-19T03:30:35.797Z,1508.00
2019-05-19T03:31:35.779Z,1580.00
2019-05-19T03:32:35.790Z,1652.00
2019-05-19T03:33:35.769Z,1724.00
2019-05-19T03:34:35.759Z,1796.00
2019-05-19T03:35:35.739Z,1868.00
2019-05-19T03:36:35.733Z,1948.00
2019-05-19T03:37:35.743Z,2020.00
2019-05-19T03:38:35.704Z,2088.00
2019-05-19T03:39:35.693Z,2164.00
2019-05-19T03:40:35.692Z,2236.00
2019-05-19T03:41:35.679Z,2308.00
2019-05-19T03:42:35.688Z,2388.00
2019-05-19T03:43:35.677Z,2468.00
2019-05-19T03:44:35.640Z,2560.00
2019-05-19T03:45:35.654Z,2660.00
2019-05-19T03:46:35.660Z,2768.00
2019-05-19T03:47:35.630Z,2876.00
2019-05-19T03:48:35.644Z,2984.00
2019-05-19T03:49:35.592Z,3092.00
2019-05-19T03:50:35.579Z,3212.00
2019-05-19T03:51:35.563Z,3320.00
2019-05-19T03:52:35.562Z,3404.00
2019-05-19T03:53:35.575Z,3508.00
2019-05-19T03:54:35.548Z,3564.00
2019-05-19T03:55:35.536Z,3588.00
2019-05-19T03:56:35.510Z,3584.00
2019-05-19T03:57:35.497Z,3552.00
2019-05-19T03:58:35.511Z,3544.00
2019-05-19T03:59:35.475Z,3576.00
2019-05-19T04:00:35.466Z,3576.00
2019-05-19T04:01:35.461Z,3552.00
2019-05-19T04:02:35.448Z,3632.00
2019-05-19T04:03:35.449Z,3844.00
2019-05-19T04:04:35.427Z,4008.00
2019-05-19T04:05:35.426Z,4200.00
2019-05-19T04:06:35.433Z,4384.00
2019-05-19T04:07:35.392Z,4552.00
2019-05-19T04:08:35.398Z,4760.00
2019-05-19T04:09:35.371Z,4980.00
2019-05-19T04:10:35.361Z,5208.00
2019-05-19T04:11:35.357Z,5436.00
2019-05-19T04:12:35.345Z,5572.00
2019-05-19T04:13:35.357Z,5728.00
2019-05-19T04:14:35.316Z,5844.00
2019-05-19T04:15:35.304Z,5948.00
2019-05-19T04:16:35.289Z,6136.00
2019-05-19T04:17:35.281Z,6388.00
2019-05-19T04:18:35.302Z,6588.00
2019-05-19T04:19:35.262Z,6688.00
2019-05-19T04:20:35.244Z,6648.00
2019-05-19T04:21:48.159Z,6632.00
2019-05-19T04:22:36.226Z,6664.00
2019-05-19T04:23:35.226Z,6648.00
2019-05-19T04:24:35.202Z,6552.00
2019-05-19T04:25:35.190Z,6556.00
2019-05-19T04:26:35.179Z,6616.00
2019-05-19T04:27:35.176Z,6572.00
2019-05-19T04:28:35.175Z,6636.00
2019-05-19T04:29:39.204Z,6716.00
2019-05-19T04:30:35.135Z,6836.00
2019-05-19T04:31:35.132Z,6976.00
2019-05-19T04:32:35.115Z,7084.00
2019-05-19T04:33:35.117Z,7108.00
2019-05-19T04:34:35.091Z,7100.00
2019-05-19T04:35:35.083Z,7096.00
2019-05-19T04:36:35.073Z,7220.00
2019-05-19T04:37:35.109Z,7172.00
2019-05-19T04:38:35.088Z,7096.00
2019-05-19T04:39:35.039Z,7124.00
2019-05-19T04:40:35.026Z,7280.00
2019-05-19T04:41:35.017Z,7336.00
2019-05-19T04:42:35.009Z,7436.00
2019-05-19T04:43:34.997Z,7504.00
2019-05-19T04:44:35.000Z,7616.00
2019-05-19T04:45:34.986Z,7800.00
2019-05-19T04:46:34.985Z,8672.00
2019-05-19T04:47:34.956Z,9464.00
2019-05-19T04:48:34.943Z,9680.00
2019-05-19T04:49:34.937Z,9752.00
2019-05-19T04:50:34.922Z,9640.00
2019-05-19T04:51:34.913Z,10304.00
2019-05-19T04:52:34.898Z,10332.00
2019-05-19T04:53:34.891Z,10212.00
2019-05-19T04:54:34.888Z,10032.00
2019-05-19T04:55:34.866Z,10120.00
2019-05-19T04:56:34.854Z,10320.00
2019-05-19T04:57:34.840Z,10680.00
2019-05-19T04:58:34.830Z,11684.00
2019-05-19T04:59:34.834Z,12620.00
2019-05-19T05:00:34.808Z,12944.00
2019-05-19T05:01:34.803Z,13600.00
2019-05-19T05:02:34.785Z,13816.00
2019-05-19T05:03:34.780Z,13664.00
2019-05-19T05:04:34.777Z,13804.00
2019-05-19T05:05:34.753Z,13752.00
2019-05-19T05:06:34.762Z,13544.00
2019-05-19T05:07:34.729Z,12644.00
2019-05-19T05:08:34.723Z,12592.00
2019-05-19T05:09:34.724Z,12780.00
2019-05-19T05:10:34.704Z,13256.00
2019-05-19T05:11:34.686Z,12464.00
2019-05-19T05:12:34.681Z,11492.00
2019-05-19T05:13:34.665Z,11092.00
2019-05-19T05:14:34.676Z,10252.00
2019-05-19T05:15:34.671Z,9612.00
2019-05-19T05:16:34.635Z,9164.00
2019-05-19T05:17:34.622Z,9100.00
2019-05-19T05:18:34.648Z,9340.00
2019-05-19T05:19:34.621Z,9836.00
2019-05-19T05:20:34.606Z,10480.00
2019-05-19T05:21:34.590Z,11444.00
2019-05-19T05:22:34.572Z,12680.00
2019-05-19T05:23:34.560Z,13152.00
2019-05-19T05:24:34.568Z,13972.00
2019-05-19T05:25:34.540Z,16288.00
2019-05-19T05:26:34.533Z,16000.00
2019-05-19T05:27:34.521Z,16288.00
2019-05-19T05:28:34.517Z,15648.00
2019-05-19T05:29:34.514Z,15936.00
2019-05-19T05:30:34.486Z,13428.00
2019-05-19T05:31:34.477Z,12716.00
2019-05-19T05:32:34.484Z,13144.00
2019-05-19T05:33:34.455Z,14108.00
2019-05-19T05:34:34.466Z,14944.00
2019-05-19T05:35:34.436Z,15264.00
2019-05-19T05:36:34.425Z,14656.00
2019-05-19T05:37:34.419Z,14976.00
2019-05-19T05:38:34.401Z,17216.00
2019-05-19T05:39:34.407Z,17824.00
2019-05-19T05:40:34.385Z,16960.00
2019-05-19T05:41:34.375Z,16576.00
2019-05-19T05:42:34.361Z,15360.00
2019-05-19T05:43:34.363Z,15392.00
2019-05-19T05:44:34.367Z,14476.00
2019-05-19T05:45:34.327Z,13584.00
2019-05-19T05:46:34.315Z,13628.00
2019-05-19T05:47:34.307Z,13944.00
2019-05-19T05:48:34.295Z,14328.00
2019-05-19T05:49:34.299Z,14272.00
2019-05-19T05:50:34.273Z,16608.00
2019-05-19T05:51:34.261Z,18240.00
2019-05-19T05:52:38.642Z,17280.00
2019-05-19T05:53:34.237Z,15392.00
2019-05-19T05:54:34.249Z,15456.00
2019-05-19T05:55:34.238Z,14912.00
2019-05-19T05:56:34.212Z,14692.00
2019-05-19T05:57:34.192Z,14928.00
2019-05-19T05:58:34.189Z,15648.00
2019-05-19T05:59:34.198Z,14984.00
2019-05-19T06:00:34.163Z,14884.00
2019-05-19T06:01:34.155Z,19616.00
2019-05-19T06:02:34.143Z,21792.00
2019-05-19T06:03:34.133Z,18816.00
2019-05-19T06:04:34.135Z,19264.00
2019-05-19T06:05:34.109Z,20672.00
2019-05-19T06:06:34.111Z,25088.00
2019-05-19T06:07:34.089Z,27936.00
2019-05-19T06:08:34.079Z,28224.00
2019-05-19T06:09:34.079Z,30432.00
2019-05-19T06:10:34.065Z,31616.00
2019-05-19T06:11:34.051Z,35488.00
2019-05-19T06:12:34.035Z,36320.00
2019-05-19T06:13:34.024Z,34464.00
2019-05-19T06:14:34.027Z,15624.00
2019-05-19T06:15:34.005Z,24640.00
2019-05-19T06:16:33.990Z,31616.00
2019-05-19T06:17:33.983Z,25728.00
2019-05-19T06:18:33.970Z,17248.00
2019-05-19T06:19:33.977Z,28064.00
2019-05-19T06:20:33.948Z,37888.00
2019-05-19T06:21:33.940Z,41376.00
2019-05-19T06:22:33.927Z,43392.00
2019-05-19T06:23:33.910Z,46304.00
2019-05-19T06:24:33.933Z,43936.00
2019-05-19T06:25:33.921Z,41856.00
2019-05-19T06:26:33.881Z,43296.00
2019-05-19T06:27:33.874Z,45408.00
2019-05-19T06:28:33.862Z,47296.00
2019-05-19T06:29:33.846Z,49408.00
2019-05-19T06:30:33.861Z,51200.00
2019-05-19T06:31:33.826Z,51904.00
2019-05-19T06:32:33.817Z,52800.00
2019-05-19T06:33:33.823Z,56256.00
2019-05-19T06:34:33.796Z,58496.00
2019-05-19T06:35:33.801Z,57504.00
2019-05-19T06:36:33.818Z,53920.00
2019-05-19T06:37:33.773Z,51904.00
2019-05-19T06:38:33.789Z,51552.00
2019-05-19T06:39:33.747Z,51264.00
2019-05-19T06:40:33.748Z,50624.00
2019-05-19T06:41:33.730Z,49856.00
2019-05-19T06:42:33.712Z,52896.00
2019-05-19T06:43:33.707Z,56864.00
2019-05-19T06:44:33.692Z,57920.00
2019-05-19T06:45:33.711Z,55552.00
2019-05-19T06:46:33.670Z,52864.00
2019-05-19T06:47:33.682Z,50144.00
2019-05-19T06:48:33.651Z,49440.00
2019-05-19T06:49:33.638Z,50592.00
2019-05-19T06:50:33.654Z,48672.00
2019-05-19T06:51:33.621Z,48192.00
2019-05-19T06:52:33.615Z,50208.00
2019-05-19T06:53:33.615Z,56000.00
2019-05-19T06:54:33.603Z,60352.00
2019-05-19T06:55:33.645Z,58816.00
2019-05-19T06:56:33.574Z,53088.00
2019-05-19T06:57:33.561Z,49408.00
2019-05-19T06:58:33.548Z,52160.00
2019-05-19T06:59:33.545Z,55328.00
2019-05-19T07:00:33.542Z,57216.00
2019-05-19T07:01:33.518Z,58432.00
2019-05-19T07:02:33.502Z,60672.00
2019-05-19T07:03:33.494Z,59840.00
2019-05-19T07:04:33.484Z,57344.00
2019-05-19T07:05:33.490Z,55488.00
2019-05-19T07:06:34.325Z,52320.00
2019-05-19T07:07:33.453Z,55808.00
2019-05-19T07:08:33.443Z,57760.00
2019-05-19T07:09:33.452Z,58432.00
2019-05-19T07:10:33.438Z,60192.00
2019-05-19T07:11:33.412Z,61280.00
2019-05-19T07:12:33.409Z,59936.00
2019-05-19T07:13:33.389Z,57696.00
2019-05-19T07:14:33.387Z,56896.00
2019-05-19T07:15:33.384Z,57632.00
2019-05-19T07:16:33.361Z,58976.00
2019-05-19T07:17:33.354Z,60416.00
2019-05-19T07:18:33.343Z,59968.00
2019-05-19T07:19:33.329Z,58944.00
2019-05-19T07:20:33.339Z,56992.00
2019-05-19T07:21:33.311Z,56192.00
2019-05-19T07:22:37.427Z,56736.00
2019-05-19T07:23:33.305Z,57184.00
2019-05-19T07:24:33.277Z,56544.00
2019-05-19T07:25:33.285Z,57376.00
2019-05-19T07:26:33.261Z,58400.00
2019-05-19T07:27:33.257Z,58560.00
2019-05-19T07:28:33.250Z,57472.00
2019-05-19T07:29:33.227Z,56576.00
2019-05-19T07:30:33.252Z,56768.00
2019-05-19T07:31:33.212Z,57696.00
2019-05-19T07:32:33.200Z,56352.00
2019-05-19T07:33:33.189Z,55840.00
2019-05-19T07:34:33.220Z,56736.00
2019-05-19T07:35:33.169Z,58784.00
2019-05-19T07:36:33.173Z,59808.00
2019-05-19T07:37:33.157Z,57920.00
2019-05-19T07:38:33.136Z,56512.00
2019-05-19T07:39:33.129Z,55968.00
2019-05-19T07:40:33.121Z,58848.00
2019-05-19T07:41:33.133Z,61056.00
2019-05-19T07:42:33.097Z,61632.00
2019-05-19T07:43:33.091Z,62944.00
2019-05-19T07:44:33.078Z,63840.00
2019-05-19T07:45:33.070Z,64288.00
2019-05-19T07:46:33.063Z,61760.00
2019-05-19T07:47:33.061Z,58944.00
2019-05-19T07:48:33.037Z,59040.00
2019-05-19T07:49:33.022Z,60192.00
2019-05-19T07:50:33.024Z,61952.00
2019-05-19T07:51:33.006Z,63424.00
2019-05-19T07:52:33.052Z,64032.00
2019-05-19T07:53:42.622Z,64416.00
2019-05-19T07:54:33.972Z,64480.00
2019-05-19T07:55:32.964Z,63712.00
2019-05-19T07:56:32.970Z,62368.00
2019-05-19T07:57:32.977Z,61056.00
2019-05-19T07:58:32.933Z,59808.00
2019-05-19T07:59:32.930Z,58624.00
2019-05-19T08:00:32.913Z,58144.00
2019-05-19T08:01:32.904Z,59584.00
2019-05-19T08:02:32.895Z,59264.00
2019-05-19T08:03:32.909Z,59232.00
2019-05-19T08:04:32.877Z,56704.00
2019-05-19T08:05:32.863Z,56864.00
2019-05-19T08:06:32.854Z,59392.00
2019-05-19T08:07:32.844Z,59360.00
2019-05-19T08:08:32.920Z,54752.00
2019-05-19T08:09:32.824Z,32640.00
2019-05-19T08:10:32.819Z,18208.00
2019-05-19T08:11:32.866Z,6456.00
2019-05-19T08:12:32.794Z,20256.00
2019-05-19T08:13:32.784Z,16928.00
2019-05-19T08:14:32.796Z,16404.00
2019-05-19T08:15:32.770Z,11744.00
2019-05-19T08:16:32.754Z,11264.00
2019-05-19T08:17:32.744Z,11876.00
2019-05-19T08:18:32.736Z,12788.00
2019-05-19T08:19:32.751Z,12876.00
2019-05-19T08:20:32.717Z,17632.00
2019-05-19T08:21:32.701Z,12916.00
2019-05-19T08:22:32.697Z,20704.00
2019-05-19T08:23:32.684Z,26176.00
2019-05-19T08:24:32.673Z,26720.00
2019-05-19T08:25:32.678Z,11708.00
2019-05-19T08:26:32.653Z,10912.00
2019-05-19T08:27:32.647Z,11772.00
2019-05-19T08:28:32.627Z,11160.00
2019-05-19T08:29:32.621Z,11260.00
2019-05-19T08:30:32.630Z,4468.00
2019-05-19T08:31:32.602Z,11140.00
2019-05-19T08:32:32.586Z,12684.00
2019-05-19T08:33:32.605Z,5600.00
2019-05-19T08:34:32.619Z,12476.00
2019-05-19T08:35:32.681Z,3912.00
2019-05-19T08:36:32.544Z,10828.00
2019-05-19T08:37:32.567Z,8940.00
2019-05-19T08:38:32.553Z,21216.00
2019-05-19T08:39:32.513Z,11008.00
2019-05-19T08:40:32.534Z,12364.00
2019-05-19T08:41:32.491Z,11760.00
2019-05-19T08:42:32.481Z,11084.00
2019-05-19T08:43:32.474Z,11096.00
2019-05-19T08:44:32.457Z,12528.00
2019-05-19T08:45:32.463Z,20192.00
2019-05-19T08:46:32.447Z,18080.00
2019-05-19T08:47:32.431Z,17036.00
2019-05-19T08:48:32.419Z,27072.00
2019-05-19T08:49:32.565Z,11708.00
2019-05-19T08:50:32.425Z,10668.00
2019-05-19T08:51:32.393Z,10968.00
2019-05-19T08:52:32.377Z,0.00
2019-05-19T08:53:32.364Z,44192.00
2019-05-19T08:54:32.356Z,10644.00
2019-05-19T08:55:32.359Z,32576.00
2019-05-19T08:56:32.379Z,17484.00
2019-05-19T08:57:32.337Z,49504.00
2019-05-19T08:58:32.330Z,9248.00
2019-05-19T08:59:32.303Z,13624.00
2019-05-19T09:00:37.590Z,8920.00
2019-05-19T09:01:33.289Z,14272.00
2019-05-19T09:02:32.274Z,10104.00
2019-05-19T09:03:32.260Z,10252.00
2019-05-19T09:04:32.250Z,9812.00
2019-05-19T09:05:32.244Z,10132.00
2019-05-19T09:06:32.249Z,9476.00
2019-05-19T09:07:32.220Z,12196.00
2019-05-19T09:08:32.210Z,9800.00
2019-05-19T09:09:32.197Z,9988.00
2019-05-19T09:10:32.184Z,10144.00
2019-05-19T09:11:32.190Z,10832.00
2019-05-19T09:12:32.256Z,9972.00
2019-05-19T09:17:27.248Z,10016.00
2019-05-19T09:21:37.484Z,9256.00
2019-05-19T09:22:37.476Z,9364.00
2019-05-19T09:23:37.456Z,16392.00
2019-05-19T09:24:37.533Z,9860.00
2019-05-19T09:25:37.442Z,10560.00
2019-05-19T09:26:37.423Z,10508.00
2019-05-19T09:27:37.413Z,10544.00
2019-05-19T09:28:37.406Z,10804.00
2019-05-19T09:29:37.395Z,10968.00
2019-05-19T09:30:37.444Z,10816.00
2019-05-19T09:31:37.372Z,11100.00
2019-05-19T09:32:37.355Z,10948.00
2019-05-19T09:33:45.882Z,18220.00
2019-05-19T09:34:38.344Z,14440.00
2019-05-19T09:35:37.338Z,11764.00
2019-05-19T09:36:37.317Z,10700.00
2019-05-19T09:37:37.305Z,10040.00
2019-05-19T09:38:37.295Z,10584.00
2019-05-19T09:39:37.290Z,19772.00
2019-05-19T09:40:37.277Z,13396.00
2019-05-19T09:41:37.260Z,10216.00
2019-05-19T09:42:37.310Z,10212.00
2019-05-19T09:43:37.241Z,10340.00
2019-05-19T09:44:37.221Z,11692.00
2019-05-19T09:45:37.228Z,10252.00
2019-05-19T09:46:37.206Z,10172.00
2019-05-19T09:47:37.734Z,10116.00
2019-05-19T09:48:37.184Z,10100.00
2019-05-19T09:49:37.170Z,10012.00
2019-05-19T09:50:37.181Z,10188.00
2019-05-19T09:51:37.150Z,10196.00
2019-05-19T09:52:37.318Z,11652.00
2019-05-19T09:53:37.128Z,10204.00
2019-05-19T09:54:44.851Z,10160.00
2019-05-19T09:55:38.127Z,10160.00
2019-05-19T09:56:37.099Z,10124.00
2019-05-19T09:57:37.133Z,10188.00
2019-05-19T09:58:37.075Z,10284.00
2019-05-19T09:59:37.092Z,10360.00
2019-05-19T10:00:37.080Z,10472.00
2019-05-19T10:01:37.045Z,10576.00
2019-05-19T10:02:37.035Z,10656.00
2019-05-19T10:03:37.021Z,10612.00
2019-05-19T10:04:37.017Z,10948.00
2019-05-19T10:05:37.001Z,11204.00
2019-05-19T10:06:37.043Z,12460.00
2019-05-19T10:07:36.983Z,12056.00
2019-05-19T10:08:36.967Z,11596.00
2019-05-19T10:09:36.960Z,11564.00
2019-05-19T10:10:36.959Z,11660.00
2019-05-19T10:11:36.949Z,17704.00
2019-05-19T10:12:36.923Z,13768.00
2019-05-19T10:13:37.888Z,11560.00
2019-05-19T10:14:36.911Z,16156.00
2019-05-19T10:15:36.898Z,6300.00
2019-05-19T10:16:36.898Z,28320.00
2019-05-19T10:17:36.870Z,21504.00
2019-05-19T10:18:36.874Z,16036.00
2019-05-19T10:19:36.848Z,23712.00
2019-05-19T10:20:36.838Z,43616.00
2019-05-19T10:21:36.840Z,11824.00
2019-05-19T10:22:36.828Z,15740.00
2019-05-19T10:23:36.804Z,11896.00
2019-05-19T10:24:36.797Z,14540.00
2019-05-19T10:25:36.788Z,23456.00
2019-05-19T10:26:36.789Z,35200.00
2019-05-19T10:27:36.766Z,14384.00
2019-05-19T10:28:36.756Z,22560.00
2019-05-19T10:29:36.753Z,17344.00
2019-05-19T10:30:36.731Z,31008.00
2019-05-19T10:31:36.733Z,30272.00
2019-05-19T10:32:36.729Z,42240.00
2019-05-19T10:33:36.704Z,41120.00
2019-05-19T10:34:36.689Z,48480.00
2019-05-19T10:35:36.682Z,42912.00
2019-05-19T10:36:36.703Z,61152.00
2019-05-19T10:37:36.757Z,65312.00
2019-05-19T10:38:36.675Z,53440.00
2019-05-19T10:39:36.636Z,37408.00
2019-05-19T10:40:36.628Z,49504.00
2019-05-19T10:41:36.628Z,65024.00
2019-05-19T10:42:36.604Z,57376.00
2019-05-19T10:43:36.596Z,52832.00
2019-05-19T10:44:36.582Z,53184.00
2019-05-19T10:45:36.576Z,43360.00
2019-05-19T10:46:36.604Z,28256.00
2019-05-19T10:47:36.549Z,49120.00
2019-05-19T10:48:36.541Z,73568.00
2019-05-19T10:49:36.535Z,43296.00
2019-05-19T10:50:36.528Z,72576.00
2019-05-19T10:51:57.136Z,64928.00
2019-05-19T10:52:37.504Z,88352.00
2019-05-19T10:53:36.488Z,55872.00
2019-05-19T10:54:36.486Z,32064.00
2019-05-19T10:55:37.167Z,54816.00
2019-05-19T10:56:36.470Z,89600.00
2019-05-19T10:57:36.452Z,18028.00
2019-05-19T10:58:36.438Z,57536.00
2019-05-19T10:59:36.431Z,54624.00
2019-05-19T11:00:36.415Z,80544.00
2019-05-19T11:01:36.422Z,97536.00
2019-05-19T11:02:36.399Z,99488.00
2019-05-19T11:03:36.387Z,102624.00
2019-05-19T11:04:36.376Z,105024.00
2019-05-19T11:05:36.364Z,104224.00
2019-05-19T11:06:44.191Z,60800.00
2019-05-19T11:07:36.358Z,12256.00
2019-05-19T11:08:36.336Z,95104.00
2019-05-19T11:09:36.341Z,93248.00
2019-05-19T11:10:36.324Z,94240.00
2019-05-19T11:11:36.318Z,94112.00
2019-05-19T11:12:36.302Z,94976.00
2019-05-19T11:13:36.293Z,97440.00
2019-05-19T11:14:36.276Z,98464.00
2019-05-19T11:15:36.267Z,100384.00
2019-05-19T11:16:36.268Z,98784.00
2019-05-19T11:17:36.248Z,95744.00
2019-05-19T11:18:36.235Z,68352.00
2019-05-19T11:19:36.223Z,37792.00
2019-05-19T11:20:36.211Z,44320.00
2019-05-19T11:21:36.225Z,53440.00
2019-05-19T11:22:36.198Z,47904.00
2019-05-19T11:23:36.187Z,103168.00
2019-05-19T11:24:36.186Z,44352.00
2019-05-19T11:25:49.280Z,41408.00
2019-05-19T11:26:37.169Z,25024.00
2019-05-19T11:27:36.147Z,25632.00
2019-05-19T11:28:36.138Z,33824.00
2019-05-19T11:29:36.127Z,28512.00
2019-05-19T11:30:36.249Z,29664.00
2019-05-19T11:31:36.118Z,93600.00
2019-05-19T11:32:36.098Z,114848.00
2019-05-19T11:33:36.087Z,105440.00
2019-05-19T11:34:36.079Z,118976.00
2019-05-19T11:35:36.068Z,117728.00
2019-05-19T11:36:36.071Z,99840.00
2019-05-19T11:37:36.054Z,70336.00
2019-05-19T11:38:36.044Z,65952.00
2019-05-19T11:39:36.031Z,43328.00
2019-05-19T11:40:36.017Z,36864.00
2019-05-19T11:41:36.024Z,98464.00
2019-05-19T11:42:35.997Z,97888.00
2019-05-19T11:43:35.987Z,94464.00
2019-05-19T11:44:35.975Z,31840.00
2019-05-19T11:45:35.971Z,99968.00
2019-05-19T11:46:35.969Z,101536.00
2019-05-19T11:47:35.950Z,101952.00
2019-05-19T11:48:35.934Z,109120.00
2019-05-19T11:49:35.928Z,73824.00
2019-05-19T11:50:35.998Z,52192.00
2019-05-19T11:51:35.920Z,19872.00
2019-05-19T11:52:35.903Z,19168.00
2019-05-19T11:53:35.908Z,19744.00
2019-05-19T11:54:35.883Z,98528.00
2019-05-19T11:55:35.874Z,101696.00
2019-05-19T11:56:35.877Z,98784.00
2019-05-19T11:57:35.849Z,90272.00
2019-05-19T11:58:35.842Z,87264.00
2019-05-19T11:59:35.826Z,94464.00
2019-05-19T12:00:35.817Z,103616.00
2019-05-19T12:01:35.824Z,101408.00
2019-05-19T12:02:35.800Z,93824.00
2019-05-19T12:03:35.799Z,87168.00
2019-05-19T12:04:35.955Z,81856.00
2019-05-19T12:05:35.767Z,82816.00
2019-05-19T12:06:39.321Z,90208.00
2019-05-19T12:07:35.751Z,97376.00
2019-05-19T12:08:35.743Z,98592.00
2019-05-19T12:09:35.730Z,92928.00
2019-05-19T12:10:36.101Z,90368.00
2019-05-19T12:11:35.735Z,92832.00
2019-05-19T12:12:35.703Z,19936.00
2019-05-19T12:13:35.691Z,19552.00
2019-05-19T12:14:35.684Z,21632.00
2019-05-19T12:15:35.683Z,33024.00